createdAt,value
2023-01-21T00:01:02.020Z,100551.05
2023-01-21T00:03:29.028Z,100547.40
2023-01-21T00:05:58.366Z,100549.83
2023-01-21T00:08:26.038Z,100550.55
2023-01-21T00:10:53.152Z,100557.52
2023-01-21T00:13:19.995Z,100560.97
2023-01-21T00:15:46.999Z,100558.66
2023-01-21T00:18:14.266Z,100556.35
2023-01-21T00:20:41.170Z,100557.64
2023-01-21T00:23:08.129Z,100556.35
2023-01-21T00:25:35.065Z,100553.28
2023-01-21T00:28:01.920Z,100553.77
2023-01-21T00:30:30.407Z,100557.14
2023-01-21T00:32:57.385Z,100561.34
2023-01-21T00:35:24.276Z,100555.86
2023-01-21T00:37:52.133Z,100562.07
2023-01-21T00:40:19.224Z,100567.61
2023-01-21T00:42:46.250Z,100561.25
2023-01-21T00:45:13.116Z,100559.33
2023-01-21T00:47:40.342Z,100558.27
2023-01-21T00:50:08.993Z,100558.17
2023-01-21T00:52:36.273Z,100558.73
2023-01-21T00:55:03.423Z,100561.65
2023-01-21T00:57:30.477Z,100559.86
2023-01-21T00:59:57.724Z,100562.98
2023-01-21T01:02:24.626Z,100562.86
2023-01-21T01:04:51.528Z,100559.72
2023-01-21T01:07:18.498Z,100558.73
2023-01-21T01:09:45.507Z,100554.64
2023-01-21T01:12:12.425Z,100557.33
2023-01-21T01:14:39.501Z,100557.25
2023-01-21T01:17:06.448Z,100554.59
2023-01-21T01:19:33.596Z,100549.43
2023-01-21T01:22:00.471Z,100544.45
2023-01-21T01:24:27.590Z,100545.95
2023-01-21T01:26:54.391Z,100543.88
2023-01-21T01:29:21.489Z,100542.19
2023-01-21T01:31:48.486Z,100541.63
2023-01-21T01:34:15.476Z,100538.14
2023-01-21T01:36:42.353Z,100542.41
2023-01-21T01:39:09.373Z,100541.56
2023-01-21T01:41:36.516Z,100540.16
2023-01-21T01:44:27.657Z,100533.95
2023-01-21T01:46:54.982Z,100535.23
2023-01-21T01:49:22.040Z,100533.87
2023-01-21T01:51:59.255Z,100529.82
2023-01-21T01:54:31.932Z,100533.27
2023-01-21T01:57:00.553Z,100535.03
2023-01-21T01:59:27.455Z,100533.56
2023-01-21T02:01:54.605Z,100536.67
2023-01-21T02:04:23.674Z,100530.94
2023-01-21T02:06:51.027Z,100531.86
2023-01-21T02:09:17.894Z,100534.65
2023-01-21T02:11:45.122Z,100527.95
2023-01-21T02:14:12.068Z,100529.77
2023-01-21T02:17:14.753Z,100527.96
2023-01-21T02:20:01.477Z,100531.14
2023-01-21T02:22:31.376Z,100536.38
2023-01-21T02:25:41.535Z,100545.41
2023-01-21T02:28:27.296Z,100558.45
2023-01-21T02:31:18.853Z,100558.73
2023-01-21T02:33:48.896Z,100560.45
2023-01-21T02:36:22.020Z,100568.36
2023-01-21T02:39:10.094Z,100566.83
2023-01-21T02:42:00.711Z,100563.27
2023-01-21T02:44:34.193Z,100579.27
2023-01-21T02:47:06.645Z,100587.83
2023-01-21T02:49:37.649Z,100582.86
2023-01-21T02:52:04.656Z,100575.80
2023-01-21T02:54:58.643Z,100586.23
2023-01-21T02:57:48.524Z,100587.40
2023-01-21T03:00:27.633Z,100568.31
2023-01-21T03:03:34.501Z,100567.00
2023-01-21T03:06:10.775Z,100557.04
2023-01-21T03:09:23.938Z,100555.77
2023-01-21T03:12:02.416Z,100542.72
2023-01-21T03:14:51.717Z,100543.11
2023-01-21T03:17:43.229Z,100555.61
2023-01-21T03:20:15.816Z,100545.34
2023-01-21T03:22:42.861Z,100537.55
2023-01-21T03:25:09.880Z,100544.52
2023-01-21T03:27:38.442Z,100563.27
2023-01-21T03:30:12.752Z,100559.80
2023-01-21T03:32:40.398Z,100556.43
2023-01-21T03:35:08.195Z,100547.04
2023-01-21T03:37:43.888Z,100566.67
2023-01-21T03:40:33.034Z,100566.76
2023-01-21T03:42:59.932Z,100559.23
2023-01-21T03:45:35.337Z,100557.68
2023-01-21T03:48:24.710Z,100543.71
2023-01-21T03:51:03.674Z,100545.09
2023-01-21T03:53:30.699Z,100560.24
2023-01-21T03:55:59.402Z,100534.48
2023-01-21T03:58:26.954Z,100547.81
2023-01-21T04:00:53.939Z,100562.83
2023-01-21T04:03:21.131Z,100553.34
2023-01-21T04:05:48.086Z,100554.44
2023-01-21T04:08:15.041Z,100552.54
2023-01-21T04:10:42.248Z,100558.89
2023-01-21T04:13:09.117Z,100567.80
2023-01-21T04:15:36.163Z,100563.77
2023-01-21T04:18:03.213Z,100575.41
2023-01-21T04:20:30.291Z,100577.88
2023-01-21T04:22:57.315Z,100587.70
2023-01-21T04:25:24.097Z,100580.13
2023-01-21T04:27:51.010Z,100576.37
2023-01-21T04:30:18.416Z,100571.06
2023-01-21T04:32:46.647Z,100580.45
2023-01-21T04:35:13.456Z,100594.48
2023-01-21T04:37:40.428Z,100589.45
2023-01-21T04:40:07.893Z,100586.19
2023-01-21T04:42:34.818Z,100584.77
2023-01-21T04:45:01.769Z,100582.25
2023-01-21T04:47:28.719Z,100580.48
2023-01-21T04:49:55.523Z,100580.20
2023-01-21T04:52:22.499Z,100575.66
2023-01-21T04:54:49.445Z,100572.91
2023-01-21T04:57:16.397Z,100568.45
2023-01-21T04:59:43.338Z,100575.99
2023-01-21T05:02:10.251Z,100582.13
2023-01-21T05:18:28.319Z,100574.56
2023-01-21T05:20:57.143Z,100571.41
2023-01-21T05:23:24.302Z,100566.09
2023-01-21T05:25:51.344Z,100571.04
2023-01-21T05:28:18.283Z,100574.91
2023-01-21T05:30:45.293Z,100570.23
2023-01-21T05:33:12.210Z,100583.86
2023-01-21T05:35:39.221Z,100583.52
2023-01-21T05:38:06.168Z,100592.14
2023-01-21T05:40:33.114Z,100602.79
2023-01-21T05:43:00.004Z,100594.54
2023-01-21T05:45:27.004Z,100603.74
2023-01-21T05:47:54.174Z,100605.97
2023-01-21T05:50:21.202Z,100601.02
2023-01-21T05:52:48.174Z,100599.34
2023-01-21T05:55:15.198Z,100599.52
2023-01-21T05:57:42.149Z,100595.55
2023-01-21T06:00:10.021Z,100597.00
2023-01-21T06:02:37.142Z,100591.96
2023-01-21T06:05:04.616Z,100598.99
2023-01-21T06:07:31.564Z,100599.23
2023-01-21T06:09:58.467Z,100595.64
2023-01-21T06:12:25.452Z,100597.25
2023-01-21T06:14:52.259Z,100601.13
2023-01-21T06:17:19.066Z,100605.95
2023-01-21T06:19:45.988Z,100607.73
2023-01-21T06:22:16.413Z,100608.73
2023-01-21T06:24:43.355Z,100606.52
2023-01-21T06:27:10.309Z,100608.98
2023-01-21T06:29:37.350Z,100606.92
2023-01-21T06:32:04.847Z,100603.27
2023-01-21T06:34:31.968Z,100601.43
2023-01-21T06:36:58.799Z,100603.06
2023-01-21T06:39:25.744Z,100604.08
2023-01-21T06:41:55.075Z,100608.19
2023-01-21T06:44:22.829Z,100608.43
2023-01-21T06:47:00.058Z,100612.70
2023-01-21T06:49:27.871Z,100611.61
2023-01-21T06:51:54.818Z,100606.23
2023-01-21T06:54:21.661Z,100606.77
2023-01-21T06:56:48.502Z,100610.08
2023-01-21T06:59:15.354Z,100612.92
2023-01-21T07:01:42.274Z,100612.87
2023-01-21T07:04:09.346Z,100625.60
2023-01-21T07:06:36.915Z,100631.64
2023-01-21T07:09:04.364Z,100635.37
2023-01-21T07:11:31.714Z,100642.98
2023-01-21T07:13:58.899Z,100652.00
2023-01-21T07:16:25.976Z,100658.33
2023-01-21T07:18:52.953Z,100661.30
2023-01-21T07:34:07.586Z,100681.11
2023-01-21T07:39:03.921Z,100692.18
2023-01-21T07:41:30.977Z,100695.03
2023-01-21T07:43:57.776Z,100702.17
2023-01-21T07:46:24.788Z,100706.59
2023-01-21T07:48:51.952Z,100713.00
2023-01-21T07:51:19.620Z,100718.73
2023-01-21T07:53:46.636Z,100720.88
2023-01-21T07:56:13.774Z,100721.76
2023-01-21T07:58:40.940Z,100722.63
2023-01-21T08:01:08.483Z,100722.43
2023-01-21T08:03:36.398Z,100723.48
2023-01-21T08:06:04.646Z,100725.88
2023-01-21T08:08:32.126Z,100724.27
2023-01-21T08:10:59.238Z,100723.73
2023-01-21T08:13:26.387Z,100718.36
2023-01-21T08:15:54.595Z,100716.27
2023-01-21T08:18:22.423Z,100720.54
2023-01-21T08:20:53.470Z,100725.64
2023-01-21T08:23:20.413Z,100731.61
2023-01-21T08:25:49.820Z,100742.34
2023-01-21T08:28:16.670Z,100751.34
2023-01-21T08:30:43.498Z,100756.70
2023-01-21T08:33:10.551Z,100756.82
2023-01-21T08:35:37.508Z,100754.25
2023-01-21T08:38:04.439Z,100762.55
2023-01-21T08:40:31.514Z,100768.19
2023-01-21T08:43:02.734Z,100772.17
2023-01-21T08:45:29.718Z,100772.37
2023-01-21T09:07:17.070Z,100778.31
2023-01-21T09:09:44.048Z,100784.10
2023-01-21T09:12:10.990Z,100785.98
2023-01-21T09:14:37.937Z,100784.54
2023-01-21T09:17:04.808Z,100782.58
2023-01-21T09:19:32.067Z,100772.69
2023-01-21T09:21:59.183Z,100773.15
2023-01-21T09:24:26.232Z,100767.34
2023-01-21T09:26:53.079Z,100764.57
2023-01-21T09:29:20.001Z,100781.97
2023-01-21T09:31:46.927Z,100782.54
2023-01-21T09:34:14.024Z,100775.71
2023-01-21T09:36:41.063Z,100772.73
2023-01-21T09:39:08.061Z,100767.37
2023-01-21T09:41:46.405Z,100767.02
2023-01-21T09:44:19.410Z,100766.23
2023-01-21T09:47:00.948Z,100764.48
2023-01-21T09:49:30.817Z,100760.48
2023-01-21T10:20:29.743Z,100774.80
2023-01-21T10:23:01.450Z,100771.86
2023-01-21T10:25:32.340Z,100770.39
2023-01-21T10:28:02.324Z,100776.81
2023-01-21T10:30:37.913Z,100773.90
2023-01-21T10:33:06.440Z,100775.90
2023-01-21T10:35:44.414Z,100778.05
2023-01-21T10:38:36.066Z,100780.21
2023-01-21T10:41:26.025Z,100776.14
2023-01-21T10:44:12.793Z,100770.30
2023-01-21T10:46:48.460Z,100767.59
2023-01-21T10:49:31.257Z,100773.52
2023-01-21T10:52:10.681Z,100782.64
2023-01-21T10:54:47.694Z,100777.08
2023-01-21T10:57:30.397Z,100767.48
2023-01-21T10:59:58.461Z,100774.95
2023-01-21T11:02:32.524Z,100784.39
2023-01-21T11:05:01.728Z,100790.27
2023-01-21T11:07:34.776Z,100790.50
2023-01-21T11:10:02.366Z,100791.52
2023-01-21T11:12:30.233Z,100797.65
2023-01-21T11:14:57.537Z,100798.52
2023-01-21T11:17:33.010Z,100790.28
2023-01-21T11:20:02.263Z,100791.77
2023-01-21T11:22:30.793Z,100790.14
2023-01-21T11:24:59.023Z,100785.25
2023-01-21T11:27:39.219Z,100777.79
2023-01-21T11:30:21.118Z,100770.32
2023-01-21T11:32:53.811Z,100773.06
2023-01-21T11:35:23.720Z,100782.47
2023-01-21T11:37:51.423Z,100789.77
2023-01-21T11:40:22.509Z,100795.71
2023-01-21T11:42:56.064Z,100794.15
2023-01-21T11:45:31.279Z,100784.88
2023-01-21T11:47:59.262Z,100780.17
2023-01-21T11:50:39.466Z,100787.02
2023-01-21T11:54:22.430Z,100799.44
2023-01-21T11:56:53.474Z,100799.36
2023-01-21T11:59:22.002Z,100806.38
2023-01-21T12:02:04.230Z,100814.31
2023-01-21T12:04:31.150Z,100814.91
2023-01-21T12:07:00.405Z,100817.90
2023-01-21T12:09:28.530Z,100824.78
2023-01-21T12:12:18.713Z,100817.41
2023-01-21T12:14:55.334Z,100818.17
2023-01-21T12:17:46.203Z,100828.52
2023-01-21T12:20:24.619Z,100832.75
2023-01-21T12:23:15.202Z,100838.95
2023-01-21T12:26:13.279Z,100842.92
2023-01-21T12:28:44.018Z,100853.36
2023-01-21T12:31:36.984Z,100860.61
2023-01-21T12:34:13.059Z,100875.14
2023-01-21T12:36:40.994Z,100883.40
2023-01-21T12:39:22.596Z,100892.08
2023-01-21T12:42:12.159Z,100901.83
2023-01-21T12:44:45.167Z,100904.19
2023-01-21T12:47:37.651Z,100902.23
2023-01-21T12:50:16.582Z,100903.94
2023-01-21T12:52:49.611Z,100907.01
2023-01-21T12:55:23.510Z,100903.76
2023-01-21T12:57:55.886Z,100900.66
2023-01-21T13:00:32.702Z,100898.27
2023-01-21T13:03:11.792Z,100894.63
2023-01-21T13:06:51.981Z,100903.95
2023-01-21T13:09:30.006Z,100910.66
2023-01-21T13:11:58.886Z,100916.08
2023-01-21T13:14:37.974Z,100918.83
2023-01-21T13:17:25.311Z,100922.86
2023-01-21T13:19:52.580Z,100917.10
2023-01-21T13:22:25.955Z,100916.98
2023-01-21T13:25:11.868Z,100921.42
2023-01-21T13:27:52.423Z,100923.04
2023-01-21T13:30:42.206Z,100920.33
2023-01-21T13:33:30.643Z,100916.04
2023-01-21T13:36:01.210Z,100916.53
2023-01-21T13:39:07.230Z,100926.48
2023-01-21T13:41:52.639Z,100932.13
2023-01-21T13:44:48.114Z,100944.29
2023-01-21T13:47:25.927Z,100956.50
2023-01-21T13:50:05.203Z,100966.35
2023-01-21T13:52:39.356Z,100963.24
2023-01-21T13:55:19.526Z,100962.37
2023-01-21T13:58:09.922Z,100962.25
2023-01-21T14:00:50.321Z,100968.38
2023-01-21T14:03:33.583Z,100975.27
2023-01-21T14:06:03.906Z,100979.81
2023-01-21T14:09:02.539Z,100982.63
2023-01-21T14:11:50.918Z,100986.17
2023-01-21T14:14:18.329Z,100988.27
2023-01-21T14:17:10.266Z,100995.30
2023-01-21T14:20:00.650Z,100999.52
2023-01-21T14:22:50.534Z,100998.67
2023-01-21T14:25:23.860Z,100999.05
2023-01-21T14:28:06.047Z,101003.18
2023-01-21T14:30:49.903Z,101017.14
2023-01-21T14:54:52.337Z,101045.43
2023-01-21T14:57:31.900Z,101060.23
2023-01-21T15:00:12.507Z,101064.18
2023-01-21T15:02:42.864Z,101067.38
2023-01-21T15:05:09.815Z,101066.42
2023-01-21T15:07:41.511Z,101064.15
2023-01-21T15:10:17.696Z,101066.96
2023-01-21T15:12:54.628Z,101071.06
2023-01-21T15:15:40.775Z,101073.86
2023-01-21T15:18:23.919Z,101077.73
2023-01-21T15:20:59.052Z,101079.29
2023-01-21T15:23:30.824Z,101088.73
2023-01-21T15:26:05.344Z,101089.31
2023-01-21T15:28:35.846Z,101087.98
2023-01-21T15:31:05.068Z,101092.38
2023-01-21T15:33:36.135Z,101095.17
2023-01-21T15:36:04.018Z,101095.66
2023-01-21T15:38:31.137Z,101100.38
2023-01-21T15:41:01.473Z,101105.05
2023-01-21T15:43:51.341Z,101107.51
2023-01-21T15:46:33.612Z,101107.48
2023-01-21T16:03:18.328Z,101123.20
2023-01-21T16:05:54.442Z,101134.16
2023-01-21T16:08:41.596Z,101134.45
2023-01-21T16:11:22.769Z,101137.06
2023-01-21T16:14:05.728Z,101139.67
2023-01-21T16:16:48.253Z,101141.48
2023-01-21T16:19:18.496Z,101143.88
2023-01-21T16:21:46.381Z,101148.38
2023-01-21T16:24:17.984Z,101155.84
2023-01-21T16:26:45.189Z,101167.06
2023-01-21T16:29:16.033Z,101170.11
2023-01-21T16:31:48.089Z,101175.41
2023-01-21T16:34:15.907Z,101177.72
2023-01-21T16:36:42.889Z,101180.41
2023-01-21T16:39:09.927Z,101177.74
2023-01-21T16:41:36.944Z,101178.28
2023-01-21T16:44:04.777Z,101182.52
2023-01-21T16:46:39.201Z,101185.03
2023-01-21T16:49:14.386Z,101184.88
2023-01-21T16:51:44.461Z,101184.15
2023-01-21T16:54:17.557Z,101190.96
2023-01-21T16:56:49.260Z,101196.50
2023-01-21T16:59:46.069Z,101199.91
2023-01-21T17:02:18.092Z,101205.15
2023-01-21T17:04:45.005Z,101208.92
2023-01-21T17:07:16.674Z,101215.12
2023-01-21T17:09:43.778Z,101216.83
2023-01-21T17:12:21.455Z,101217.54
2023-01-21T17:14:48.637Z,101223.08
2023-01-21T17:17:19.682Z,101225.93
2023-01-21T17:19:46.569Z,101226.45
2023-01-21T17:22:15.734Z,101230.65
2023-01-21T17:24:53.491Z,101233.69
2023-01-21T17:27:21.758Z,101240.21
2023-01-21T17:29:48.755Z,101241.90
2023-01-21T17:32:32.524Z,101244.69
2023-01-21T17:35:21.826Z,101247.52
2023-01-21T17:38:03.608Z,101247.36
2023-01-21T17:40:41.377Z,101252.83
2023-01-21T17:43:22.630Z,101255.96
2023-01-21T17:45:50.518Z,101258.61
2023-01-21T17:48:27.461Z,101259.15
2023-01-21T17:50:54.831Z,101265.34
2023-01-21T17:53:28.640Z,101265.62
2023-01-21T17:55:58.089Z,101265.45
2023-01-21T17:58:43.361Z,101267.38
2023-01-21T18:01:10.224Z,101269.61
2023-01-21T18:03:37.129Z,101272.50
2023-01-21T18:06:04.363Z,101275.00
2023-01-21T18:08:31.305Z,101276.55
2023-01-21T18:10:58.149Z,101279.45
2023-01-21T18:13:25.198Z,101284.20
2023-01-21T18:15:54.321Z,101287.57
2023-01-21T18:18:27.335Z,101288.89
2023-01-21T18:20:54.239Z,101289.84
2023-01-21T18:23:21.366Z,101290.83
2023-01-21T18:25:51.090Z,101294.34
2023-01-21T18:28:19.614Z,101295.07
2023-01-21T18:30:46.876Z,101296.76
2023-01-21T18:33:14.249Z,101300.38
2023-01-21T18:35:44.428Z,101303.55
2023-01-21T18:38:12.965Z,101300.00
2023-01-21T18:40:40.519Z,101294.88
2023-01-21T18:43:07.596Z,101300.39
2023-01-21T18:45:34.618Z,101302.02
2023-01-21T18:48:01.579Z,101304.75
2023-01-21T18:50:29.539Z,101307.05
2023-01-21T18:52:56.636Z,101311.02
2023-01-21T18:55:26.952Z,101313.96
2023-01-21T18:57:54.709Z,101317.43
2023-01-21T19:00:22.911Z,101324.05
2023-01-21T19:02:51.601Z,101326.92
2023-01-21T19:05:18.990Z,101323.76
2023-01-21T19:07:45.994Z,101324.05
2023-01-21T19:10:17.688Z,101329.85
2023-01-21T19:12:44.858Z,101333.73
2023-01-21T19:15:14.836Z,101341.31
2023-01-21T19:17:41.773Z,101350.38
2023-01-21T19:20:22.728Z,101356.02
2023-01-21T19:22:50.314Z,101361.28
2023-01-21T19:25:18.846Z,101363.48
2023-01-21T19:28:04.324Z,101368.27
2023-01-21T19:30:32.009Z,101367.81
2023-01-21T19:32:59.585Z,101366.84
2023-01-21T19:35:39.871Z,101366.78
2023-01-21T19:38:11.330Z,101370.85
2023-01-21T19:40:38.282Z,101370.96
2023-01-21T19:43:05.624Z,101372.63
2023-01-21T19:45:32.466Z,101371.92
2023-01-21T19:47:59.301Z,101374.15
2023-01-21T19:50:27.201Z,101378.04
2023-01-21T19:52:54.524Z,101386.08
2023-01-21T19:55:22.931Z,101390.90
2023-01-21T19:58:19.905Z,101395.14
2023-01-21T20:00:49.530Z,101398.10
2023-01-21T20:03:18.033Z,101399.38
2023-01-21T20:05:45.203Z,101403.98
2023-01-21T20:08:13.840Z,101403.95
2023-01-21T20:10:40.804Z,101403.10
2023-01-21T20:13:12.066Z,101405.07
2023-01-21T20:15:39.293Z,101411.52
2023-01-21T20:18:06.327Z,101409.33
2023-01-21T20:20:33.355Z,101409.55
2023-01-21T20:23:00.810Z,101411.60
2023-01-21T20:25:37.967Z,101414.45
2023-01-21T20:28:25.941Z,101414.55
2023-01-21T20:30:53.647Z,101415.90
2023-01-21T20:33:21.819Z,101420.70
2023-01-21T20:37:41.023Z,101433.50
2023-01-21T20:40:20.555Z,101434.46
2023-01-21T20:42:48.051Z,101436.97
2023-01-21T20:45:16.165Z,101440.31
2023-01-21T20:47:50.092Z,101444.35
2023-01-21T20:50:21.877Z,101447.15
2023-01-21T20:52:49.334Z,101454.10
2023-01-21T20:55:20.751Z,101450.42
2023-01-21T20:57:48.240Z,101454.92
2023-01-21T21:00:26.658Z,101458.84
2023-01-21T21:02:57.930Z,101458.67
2023-01-21T21:05:25.721Z,101459.10
2023-01-21T21:07:52.611Z,101465.53
2023-01-21T21:10:25.918Z,101468.48
2023-01-21T21:12:52.974Z,101470.02
2023-01-21T21:15:20.608Z,101472.72
2023-01-21T21:17:48.116Z,101471.14
2023-01-21T21:20:20.094Z,101474.69
2023-01-21T21:22:47.164Z,101475.14
2023-01-21T21:25:19.326Z,101476.95
2023-01-21T21:27:46.708Z,101479.33
2023-01-21T21:30:20.803Z,101479.43
2023-01-21T21:32:47.765Z,101486.13
2023-01-21T21:35:28.241Z,101490.26
2023-01-21T21:37:56.723Z,101492.20
2023-01-21T21:40:24.993Z,101496.42
2023-01-21T21:43:10.876Z,101496.30
2023-01-21T21:45:40.887Z,101492.14
2023-01-21T21:48:36.512Z,101493.77
2023-01-21T21:51:10.308Z,101497.81
2023-01-21T21:53:37.816Z,101504.22
2023-01-21T21:56:06.703Z,101507.32
2023-01-21T21:58:33.817Z,101504.91
2023-01-21T22:01:14.221Z,101509.02
2023-01-21T22:03:41.332Z,101508.99
2023-01-21T22:06:08.793Z,101512.94
2023-01-21T22:08:37.469Z,101511.40
2023-01-21T22:11:06.635Z,101510.77
2023-01-21T22:13:35.233Z,101513.80
2023-01-21T22:16:02.322Z,101516.83
2023-01-21T22:18:29.754Z,101519.59
2023-01-21T22:21:04.502Z,101519.55
2023-01-21T22:23:32.145Z,101520.83
2023-01-21T22:26:00.830Z,101521.05
2023-01-21T22:28:28.084Z,101521.65
2023-01-21T22:30:55.214Z,101529.73
2023-01-21T22:33:22.484Z,101530.20
